sensor_id;sensor_type;location;lat;lon;timestamp;P1;durP1;ratioP1;P2;durP2;ratioP2
75408;SDS011;63979;55.644;37.734;2023-04-06T00:03:03;7.40;;;3.92;;
75408;SDS011;63979;55.644;37.734;2023-04-06T00:08:04;6.47;;;3.97;;
75408;SDS011;63979;55.644;37.734;2023-04-06T00:13:05;6.53;;;3.45;;
75408;SDS011;63979;55.644;37.734;2023-04-06T00:18:07;6.07;;;3.25;;
75408;SDS011;63979;55.644;37.734;2023-04-06T00:23:08;5.47;;;3.53;;
75408;SDS011;63979;55.644;37.734;2023-04-06T00:28:09;5.28;;;3.58;;
75408;SDS011;63979;55.644;37.734;2023-04-06T00:33:10;8.15;;;3.70;;
75408;SDS011;63979;55.644;37.734;2023-04-06T00:38:12;6.65;;;3.70;;
75408;SDS011;63979;55.644;37.734;2023-04-06T00:43:13;6.45;;;3.85;;
75408;SDS011;63979;55.644;37.734;2023-04-06T00:48:14;6.03;;;3.85;;
75408;SDS011;63979;55.644;37.734;2023-04-06T00:53:15;8.15;;;3.90;;
75408;SDS011;63979;55.644;37.734;2023-04-06T00:58:17;5.72;;;3.50;;
75408;SDS011;63979;55.644;37.734;2023-04-06T01:03:18;6.45;;;3.92;;
75408;SDS011;63979;55.644;37.734;2023-04-06T01:08:20;5.35;;;3.30;;
75408;SDS011;63979;55.644;37.734;2023-04-06T01:13:21;4.90;;;2.85;;
75408;SDS011;63979;55.644;37.734;2023-04-06T01:18:26;5.65;;;3.90;;
75408;SDS011;63979;55.644;37.734;2023-04-06T01:23:27;7.30;;;4.00;;
75408;SDS011;63979;55.644;37.734;2023-04-06T01:28:29;6.18;;;4.03;;
75408;SDS011;63979;55.644;37.734;2023-04-06T01:33:30;6.35;;;4.20;;
75408;SDS011;63979;55.644;37.734;2023-04-06T01:38:31;7.32;;;3.83;;
75408;SDS011;63979;55.644;37.734;2023-04-06T01:43:32;8.70;;;4.18;;
75408;SDS011;63979;55.644;37.734;2023-04-06T01:48:33;9.85;;;3.80;;
75408;SDS011;63979;55.644;37.734;2023-04-06T01:53:34;6.47;;;3.90;;
75408;SDS011;63979;55.644;37.734;2023-04-06T01:58:35;5.57;;;3.53;;
75408;SDS011;63979;55.644;37.734;2023-04-06T02:03:36;5.57;;;3.47;;
75408;SDS011;63979;55.644;37.734;2023-04-06T02:08:38;5.47;;;3.70;;
75408;SDS011;63979;55.644;37.734;2023-04-06T02:13:39;6.07;;;4.07;;
75408;SDS011;63979;55.644;37.734;2023-04-06T02:18:40;7.72;;;3.67;;
75408;SDS011;63979;55.644;37.734;2023-04-06T02:23:41;5.20;;;3.67;;
75408;SDS011;63979;55.644;37.734;2023-04-06T02:28:42;6.82;;;4.07;;
75408;SDS011;63979;55.644;37.734;2023-04-06T02:33:43;6.80;;;3.88;;
75408;SDS011;63979;55.644;37.734;2023-04-06T02:38:44;4.35;;;3.10;;
75408;SDS011;63979;55.644;37.734;2023-04-06T02:43:45;5.22;;;3.55;;
75408;SDS011;63979;55.644;37.734;2023-04-06T02:48:46;7.55;;;3.42;;
75408;SDS011;63979;55.644;37.734;2023-04-06T02:53:47;8.68;;;3.85;;
75408;SDS011;63979;55.644;37.734;2023-04-06T02:58:48;6.40;;;4.07;;
75408;SDS011;63979;55.644;37.734;2023-04-06T03:03:49;6.20;;;4.13;;
75408;SDS011;63979;55.644;37.734;2023-04-06T03:08:51;10.52;;;4.50;;
75408;SDS011;63979;55.644;37.734;2023-04-06T03:13:52;5.75;;;3.83;;
75408;SDS011;63979;55.644;37.734;2023-04-06T03:18:53;8.77;;;4.10;;
75408;SDS011;63979;55.644;37.734;2023-04-06T03:23:53;6.97;;;4.00;;
75408;SDS011;63979;55.644;37.734;2023-04-06T03:28:55;7.38;;;3.78;;
75408;SDS011;63979;55.644;37.734;2023-04-06T03:33:55;5.53;;;3.97;;
75408;SDS011;63979;55.644;37.734;2023-04-06T03:38:56;6.65;;;3.28;;
75408;SDS011;63979;55.644;37.734;2023-04-06T03:43:57;9.20;;;3.60;;
75408;SDS011;63979;55.644;37.734;2023-04-06T03:48:58;6.50;;;3.83;;
75408;SDS011;63979;55.644;37.734;2023-04-06T03:53:59;7.63;;;3.47;;
75408;SDS011;63979;55.644;37.734;2023-04-06T03:59:00;6.05;;;3.75;;
75408;SDS011;63979;55.644;37.734;2023-04-06T04:04:02;8.00;;;4.57;;
75408;SDS011;63979;55.644;37.734;2023-04-06T04:09:03;12.20;;;4.80;;
75408;SDS011;63979;55.644;37.734;2023-04-06T04:14:04;5.97;;;3.58;;
75408;SDS011;63979;55.644;37.734;2023-04-06T04:19:05;10.52;;;4.30;;
75408;SDS011;63979;55.644;37.734;2023-04-06T04:24:06;14.90;;;4.63;;
75408;SDS011;63979;55.644;37.734;2023-04-06T04:29:07;5.68;;;3.22;;
75408;SDS011;63979;55.644;37.734;2023-04-06T04:34:08;4.72;;;3.30;;
75408;SDS011;63979;55.644;37.734;2023-04-06T04:39:10;6.65;;;4.00;;
75408;SDS011;63979;55.644;37.734;2023-04-06T04:44:11;6.68;;;3.65;;
75408;SDS011;63979;55.644;37.734;2023-04-06T04:49:11;7.90;;;3.42;;
75408;SDS011;63979;55.644;37.734;2023-04-06T04:54:12;7.03;;;3.22;;
75408;SDS011;63979;55.644;37.734;2023-04-06T04:59:13;6.68;;;3.75;;
75408;SDS011;63979;55.644;37.734;2023-04-06T05:04:14;6.00;;;3.85;;
75408;SDS011;63979;55.644;37.734;2023-04-06T05:09:15;13.93;;;4.82;;
75408;SDS011;63979;55.644;37.734;2023-04-06T05:14:17;10.35;;;3.85;;
75408;SDS011;63979;55.644;37.734;2023-04-06T05:19:18;9.98;;;4.03;;
75408;SDS011;63979;55.644;37.734;2023-04-06T05:24:20;24.95;;;5.88;;
75408;SDS011;63979;55.644;37.734;2023-04-06T05:29:21;14.38;;;3.78;;
75408;SDS011;63979;55.644;37.734;2023-04-06T05:34:22;13.07;;;3.20;;
75408;SDS011;63979;55.644;37.734;2023-04-06T05:39:23;6.07;;;3.13;;
75408;SDS011;63979;55.644;37.734;2023-04-06T05:44:23;5.20;;;3.38;;
75408;SDS011;63979;55.644;37.734;2023-04-06T05:49:25;11.80;;;4.05;;
75408;SDS011;63979;55.644;37.734;2023-04-06T05:54:26;6.78;;;3.88;;
75408;SDS011;63979;55.644;37.734;2023-04-06T05:59:29;6.78;;;3.33;;
75408;SDS011;63979;55.644;37.734;2023-04-06T06:04:31;12.68;;;4.28;;
75408;SDS011;63979;55.644;37.734;2023-04-06T06:09:32;8.75;;;3.67;;
75408;SDS011;63979;55.644;37.734;2023-04-06T06:14:33;6.10;;;4.00;;
75408;SDS011;63979;55.644;37.734;2023-04-06T06:19:34;10.02;;;4.20;;
75408;SDS011;63979;55.644;37.734;2023-04-06T06:24:35;6.75;;;3.33;;
75408;SDS011;63979;55.644;37.734;2023-04-06T06:29:36;17.33;;;5.70;;
75408;SDS011;63979;55.644;37.734;2023-04-06T06:34:37;11.30;;;4.47;;
75408;SDS011;63979;55.644;37.734;2023-04-06T06:39:38;10.10;;;4.40;;
75408;SDS011;63979;55.644;37.734;2023-04-06T06:44:39;4.97;;;3.22;;
75408;SDS011;63979;55.644;37.734;2023-04-06T06:49:40;5.22;;;3.72;;
75408;SDS011;63979;55.644;37.734;2023-04-06T06:54:40;9.27;;;4.32;;
75408;SDS011;63979;55.644;37.734;2023-04-06T06:59:42;7.40;;;4.40;;
75408;SDS011;63979;55.644;37.734;2023-04-06T07:04:43;7.32;;;3.78;;
75408;SDS011;63979;55.644;37.734;2023-04-06T07:09:44;5.95;;;3.47;;
75408;SDS011;63979;55.644;37.734;2023-04-06T07:14:45;6.05;;;4.13;;
75408;SDS011;63979;55.644;37.734;2023-04-06T07:19:46;9.88;;;4.13;;
75408;SDS011;63979;55.644;37.734;2023-04-06T07:24:47;7.28;;;4.13;;
75408;SDS011;63979;55.644;37.734;2023-04-06T07:29:48;6.00;;;3.92;;
75408;SDS011;63979;55.644;37.734;2023-04-06T07:34:49;16.67;;;10.13;;
75408;SDS011;63979;55.644;37.734;2023-04-06T07:39:50;6.80;;;4.28;;
75408;SDS011;63979;55.644;37.734;2023-04-06T07:44:51;7.82;;;3.95;;
75408;SDS011;63979;55.644;37.734;2023-04-06T07:49:54;6.68;;;3.90;;
75408;SDS011;63979;55.644;37.734;2023-04-06T07:54:56;12.93;;;5.30;;
75408;SDS011;63979;55.644;37.734;2023-04-06T07:59:57;8.20;;;4.13;;
75408;SDS011;63979;55.644;37.734;2023-04-06T08:04:58;10.43;;;3.90;;
75408;SDS011;63979;55.644;37.734;2023-04-06T08:09:59;7.07;;;3.47;;
75408;SDS011;63979;55.644;37.734;2023-04-06T08:15:00;7.22;;;3.28;;
75408;SDS011;63979;55.644;37.734;2023-04-06T08:20:04;5.55;;;3.30;;
75408;SDS011;63979;55.644;37.734;2023-04-06T08:25:05;7.25;;;3.30;;
75408;SDS011;63979;55.644;37.734;2023-04-06T08:30:06;10.05;;;2.60;;
75408;SDS011;63979;55.644;37.734;2023-04-06T08:35:08;18.02;;;3.58;;
75408;SDS011;63979;55.644;37.734;2023-04-06T08:40:09;6.13;;;2.85;;
75408;SDS011;63979;55.644;37.734;2023-04-06T08:45:11;6.90;;;3.05;;
75408;SDS011;63979;55.644;37.734;2023-04-06T08:50:15;8.70;;;3.00;;
75408;SDS011;63979;55.644;37.734;2023-04-06T08:55:17;10.70;;;2.83;;
75408;SDS011;63979;55.644;37.734;2023-04-06T09:00:18;7.80;;;3.25;;
75408;SDS011;63979;55.644;37.734;2023-04-06T09:05:21;6.18;;;3.10;;
75408;SDS011;63979;55.644;37.734;2023-04-06T09:10:25;12.68;;;3.55;;
75408;SDS011;63979;55.644;37.734;2023-04-06T09:15:26;24.75;;;5.68;;
75408;SDS011;63979;55.644;37.734;2023-04-06T09:20:27;11.75;;;3.70;;
75408;SDS011;63979;55.644;37.734;2023-04-06T09:25:28;3.53;;;2.75;;
75408;SDS011;63979;55.644;37.734;2023-04-06T09:30:31;8.10;;;2.88;;
75408;SDS011;63979;55.644;37.734;2023-04-06T09:35:32;4.55;;;2.67;;
75408;SDS011;63979;55.644;37.734;2023-04-06T09:40:33;11.73;;;3.53;;
75408;SDS011;63979;55.644;37.734;2023-04-06T09:45:34;9.85;;;3.80;;
75408;SDS011;63979;55.644;37.734;2023-04-06T09:50:35;9.27;;;2.95;;
75408;SDS011;63979;55.644;37.734;2023-04-06T09:55:41;12.57;;;3.35;;
75408;SDS011;63979;55.644;37.734;2023-04-06T10:00:48;5.65;;;2.80;;
75408;SDS011;63979;55.644;37.734;2023-04-06T10:05:57;8.60;;;2.90;;
75408;SDS011;63979;55.644;37.734;2023-04-06T10:11:04;5.50;;;2.55;;
75408;SDS011;63979;55.644;37.734;2023-04-06T10:16:06;7.55;;;2.58;;
75408;SDS011;63979;55.644;37.734;2023-04-06T10:21:11;11.02;;;3.58;;
75408;SDS011;63979;55.644;37.734;2023-04-06T10:26:17;5.30;;;3.05;;
75408;SDS011;63979;55.644;37.734;2023-04-06T10:36:35;10.23;;;3.47;;
75408;SDS011;63979;55.644;37.734;2023-04-06T10:41:43;11.60;;;2.95;;
75408;SDS011;63979;55.644;37.734;2023-04-06T10:46:53;13.82;;;3.60;;
75408;SDS011;63979;55.644;37.734;2023-04-06T10:51:56;8.18;;;2.80;;
75408;SDS011;63979;55.644;37.734;2023-04-06T10:56:58;6.00;;;3.08;;
75408;SDS011;63979;55.644;37.734;2023-04-06T11:01:59;14.38;;;3.45;;
75408;SDS011;63979;55.644;37.734;2023-04-06T11:07:00;8.13;;;2.90;;
75408;SDS011;63979;55.644;37.734;2023-04-06T11:12:00;13.10;;;3.45;;
75408;SDS011;63979;55.644;37.734;2023-04-06T11:17:01;17.55;;;4.57;;
75408;SDS011;63979;55.644;37.734;2023-04-06T11:22:07;7.07;;;2.50;;
75408;SDS011;63979;55.644;37.734;2023-04-06T11:27:08;7.18;;;2.50;;
75408;SDS011;63979;55.644;37.734;2023-04-06T11:32:10;5.10;;;2.38;;
75408;SDS011;63979;55.644;37.734;2023-04-06T11:37:11;4.90;;;2.33;;
75408;SDS011;63979;55.644;37.734;2023-04-06T11:42:12;7.22;;;2.13;;
75408;SDS011;63979;55.644;37.734;2023-04-06T11:47:14;9.98;;;2.90;;
75408;SDS011;63979;55.644;37.734;2023-04-06T11:57:21;6.93;;;2.53;;
75408;SDS011;63979;55.644;37.734;2023-04-06T12:07:28;6.72;;;2.05;;
75408;SDS011;63979;55.644;37.734;2023-04-06T12:12:31;6.90;;;2.53;;
75408;SDS011;63979;55.644;37.734;2023-04-06T12:17:32;9.75;;;3.08;;
75408;SDS011;63979;55.644;37.734;2023-04-06T12:22:34;7.95;;;2.97;;
75408;SDS011;63979;55.644;37.734;2023-04-06T12:27:35;10.57;;;3.17;;
75408;SDS011;63979;55.644;37.734;2023-04-06T12:32:36;11.63;;;3.05;;
75408;SDS011;63979;55.644;37.734;2023-04-06T12:37:37;9.88;;;2.70;;
75408;SDS011;63979;55.644;37.734;2023-04-06T12:42:38;7.03;;;2.60;;
75408;SDS011;63979;55.644;37.734;2023-04-06T12:47:42;17.70;;;9.98;;
75408;SDS011;63979;55.644;37.734;2023-04-06T12:52:43;7.22;;;2.20;;
75408;SDS011;63979;55.644;37.734;2023-04-06T12:57:44;9.65;;;2.63;;
75408;SDS011;63979;55.644;37.734;2023-04-06T13:02:46;8.30;;;2.42;;
75408;SDS011;63979;55.644;37.734;2023-04-06T13:07:47;4.93;;;2.45;;
75408;SDS011;63979;55.644;37.734;2023-04-06T13:12:50;5.13;;;2.63;;
75408;SDS011;63979;55.644;37.734;2023-04-06T13:17:51;7.63;;;3.20;;
75408;SDS011;63979;55.644;37.734;2023-04-06T13:22:53;8.50;;;2.05;;
75408;SDS011;63979;55.644;37.734;2023-04-06T13:27:54;4.63;;;3.20;;
75408;SDS011;63979;55.644;37.734;2023-04-06T13:32:56;5.22;;;2.58;;
75408;SDS011;63979;55.644;37.734;2023-04-06T13:37:57;9.98;;;2.10;;
75408;SDS011;63979;55.644;37.734;2023-04-06T13:42:58;3.78;;;2.10;;
75408;SDS011;63979;55.644;37.734;2023-04-06T13:47:59;5.70;;;2.47;;
75408;SDS011;63979;55.644;37.734;2023-04-06T13:53:00;3.22;;;1.70;;
75408;SDS011;63979;55.644;37.734;2023-04-06T13:58:02;4.72;;;1.85;;
75408;SDS011;63979;55.644;37.734;2023-04-06T14:03:03;10.07;;;2.00;;
75408;SDS011;63979;55.644;37.734;2023-04-06T14:08:04;4.90;;;2.22;;
75408;SDS011;63979;55.644;37.734;2023-04-06T14:13:06;9.15;;;2.13;;
75408;SDS011;63979;55.644;37.734;2023-04-06T14:18:07;3.55;;;1.90;;
75408;SDS011;63979;55.644;37.734;2023-04-06T14:23:09;5.53;;;1.50;;
75408;SDS011;63979;55.644;37.734;2023-04-06T14:28:11;3.60;;;1.42;;
75408;SDS011;63979;55.644;37.734;2023-04-06T14:33:12;3.38;;;1.38;;
75408;SDS011;63979;55.644;37.734;2023-04-06T14:38:13;6.88;;;1.80;;
75408;SDS011;63979;55.644;37.734;2023-04-06T14:48:15;3.88;;;1.42;;
75408;SDS011;63979;55.644;37.734;2023-04-06T14:53:17;4.32;;;1.55;;
75408;SDS011;63979;55.644;37.734;2023-04-06T14:58:19;3.65;;;1.50;;
75408;SDS011;63979;55.644;37.734;2023-04-06T15:03:20;4.72;;;1.40;;
75408;SDS011;63979;55.644;37.734;2023-04-06T15:08:24;3.10;;;1.30;;
75408;SDS011;63979;55.644;37.734;2023-04-06T15:13:25;2.10;;;1.35;;
75408;SDS011;63979;55.644;37.734;2023-04-06T15:18:26;2.03;;;0.93;;
75408;SDS011;63979;55.644;37.734;2023-04-06T15:23:27;2.22;;;0.93;;
75408;SDS011;63979;55.644;37.734;2023-04-06T15:28:33;4.35;;;1.92;;
75408;SDS011;63979;55.644;37.734;2023-04-06T15:33:35;2.97;;;1.65;;
75408;SDS011;63979;55.644;37.734;2023-04-06T15:38:38;5.70;;;1.27;;
75408;SDS011;63979;55.644;37.734;2023-04-06T15:43:38;2.38;;;1.40;;
75408;SDS011;63979;55.644;37.734;2023-04-06T15:48:40;2.35;;;1.20;;
75408;SDS011;63979;55.644;37.734;2023-04-06T15:53:42;13.07;;;2.38;;
75408;SDS011;63979;55.644;37.734;2023-04-06T15:58:43;2.17;;;1.25;;
75408;SDS011;63979;55.644;37.734;2023-04-06T16:03:44;2.45;;;1.20;;
75408;SDS011;63979;55.644;37.734;2023-04-06T16:08:46;3.65;;;1.08;;
75408;SDS011;63979;55.644;37.734;2023-04-06T16:13:46;4.10;;;1.20;;
75408;SDS011;63979;55.644;37.734;2023-04-06T16:18:48;4.38;;;1.15;;
75408;SDS011;63979;55.644;37.734;2023-04-06T16:23:49;15.15;;;5.32;;
75408;SDS011;63979;55.644;37.734;2023-04-06T16:28:50;3.08;;;1.52;;
75408;SDS011;63979;55.644;37.734;2023-04-06T16:33:52;6.53;;;1.40;;
75408;SDS011;63979;55.644;37.734;2023-04-06T16:38:55;5.72;;;2.00;;
75408;SDS011;63979;55.644;37.734;2023-04-06T16:43:57;2.88;;;1.33;;
75408;SDS011;63979;55.644;37.734;2023-04-06T16:48:58;5.45;;;1.80;;
75408;SDS011;63979;55.644;37.734;2023-04-06T16:54:01;6.80;;;2.20;;
75408;SDS011;63979;55.644;37.734;2023-04-06T16:59:05;4.45;;;1.50;;
75408;SDS011;63979;55.644;37.734;2023-04-06T17:04:10;2.28;;;1.48;;
75408;SDS011;63979;55.644;37.734;2023-04-06T17:09:12;2.47;;;1.23;;
75408;SDS011;63979;55.644;37.734;2023-04-06T17:14:13;2.90;;;1.30;;
75408;SDS011;63979;55.644;37.734;2023-04-06T17:19:14;2.28;;;1.40;;
75408;SDS011;63979;55.644;37.734;2023-04-06T17:24:15;10.73;;;2.33;;
75408;SDS011;63979;55.644;37.734;2023-04-06T17:29:16;10.27;;;2.38;;
75408;SDS011;63979;55.644;37.734;2023-04-06T17:34:17;3.10;;;1.65;;
75408;SDS011;63979;55.644;37.734;2023-04-06T17:39:18;3.25;;;0.95;;
75408;SDS011;63979;55.644;37.734;2023-04-06T17:44:18;2.03;;;1.20;;
75408;SDS011;63979;55.644;37.734;2023-04-06T17:49:20;5.53;;;2.20;;
75408;SDS011;63979;55.644;37.734;2023-04-06T17:54:21;3.90;;;1.48;;
75408;SDS011;63979;55.644;37.734;2023-04-06T17:59:22;6.95;;;1.58;;
75408;SDS011;63979;55.644;37.734;2023-04-06T18:04:23;8.85;;;3.17;;
75408;SDS011;63979;55.644;37.734;2023-04-06T18:09:24;2.75;;;1.30;;
75408;SDS011;63979;55.644;37.734;2023-04-06T18:14:24;9.80;;;1.50;;
75408;SDS011;63979;55.644;37.734;2023-04-06T18:19:26;6.13;;;2.03;;
75408;SDS011;63979;55.644;37.734;2023-04-06T18:24:29;5.18;;;1.40;;
75408;SDS011;63979;55.644;37.734;2023-04-06T18:29:30;6.47;;;1.40;;
75408;SDS011;63979;55.644;37.734;2023-04-06T18:34:32;3.42;;;1.20;;
75408;SDS011;63979;55.644;37.734;2023-04-06T18:39:36;4.60;;;1.42;;
75408;SDS011;63979;55.644;37.734;2023-04-06T18:49:39;3.33;;;1.52;;
75408;SDS011;63979;55.644;37.734;2023-04-06T18:54:40;5.78;;;1.48;;
75408;SDS011;63979;55.644;37.734;2023-04-06T18:59:41;4.47;;;1.40;;
75408;SDS011;63979;55.644;37.734;2023-04-06T19:04:42;3.78;;;1.15;;
75408;SDS011;63979;55.644;37.734;2023-04-06T19:09:43;4.93;;;2.13;;
75408;SDS011;63979;55.644;37.734;2023-04-06T19:14:45;2.15;;;1.17;;
75408;SDS011;63979;55.644;37.734;2023-04-06T19:19:51;6.00;;;1.65;;
75408;SDS011;63979;55.644;37.734;2023-04-06T19:24:52;4.00;;;1.67;;
75408;SDS011;63979;55.644;37.734;2023-04-06T19:29:53;4.43;;;1.67;;
75408;SDS011;63979;55.644;37.734;2023-04-06T19:34:54;8.40;;;2.40;;
75408;SDS011;63979;55.644;37.734;2023-04-06T19:39:56;3.63;;;1.30;;
75408;SDS011;63979;55.644;37.734;2023-04-06T19:44:57;4.32;;;1.50;;
75408;SDS011;63979;55.644;37.734;2023-04-06T19:49:58;4.47;;;1.38;;
75408;SDS011;63979;55.644;37.734;2023-04-06T19:54:59;4.30;;;1.20;;
75408;SDS011;63979;55.644;37.734;2023-04-06T20:00:00;4.38;;;1.40;;
75408;SDS011;63979;55.644;37.734;2023-04-06T20:05:02;8.35;;;1.42;;
75408;SDS011;63979;55.644;37.734;2023-04-06T20:10:04;4.35;;;0.98;;
75408;SDS011;63979;55.644;37.734;2023-04-06T20:15:07;2.40;;;0.95;;
75408;SDS011;63979;55.644;37.734;2023-04-06T20:25:12;2.38;;;1.45;;
75408;SDS011;63979;55.644;37.734;2023-04-06T20:30:13;4.57;;;1.58;;
75408;SDS011;63979;55.644;37.734;2023-04-06T20:35:16;8.13;;;1.83;;
75408;SDS011;63979;55.644;37.734;2023-04-06T20:40:17;2.88;;;1.42;;
75408;SDS011;63979;55.644;37.734;2023-04-06T20:45:19;1.67;;;1.13;;
75408;SDS011;63979;55.644;37.734;2023-04-06T20:50:22;1.40;;;1.10;;
75408;SDS011;63979;55.644;37.734;2023-04-06T20:55:23;2.88;;;1.58;;
75408;SDS011;63979;55.644;37.734;2023-04-06T21:00:24;1.92;;;1.00;;
75408;SDS011;63979;55.644;37.734;2023-04-06T21:05:26;5.63;;;1.05;;
75408;SDS011;63979;55.644;37.734;2023-04-06T21:10:27;5.05;;;1.77;;
75408;SDS011;63979;55.644;37.734;2023-04-06T21:15:28;3.08;;;1.13;;
75408;SDS011;63979;55.644;37.734;2023-04-06T21:20:29;4.20;;;1.10;;
75408;SDS011;63979;55.644;37.734;2023-04-06T21:25:31;5.82;;;1.40;;
75408;SDS011;63979;55.644;37.734;2023-04-06T21:30:32;2.08;;;1.15;;
75408;SDS011;63979;55.644;37.734;2023-04-06T21:35:37;2.80;;;1.40;;
75408;SDS011;63979;55.644;37.734;2023-04-06T21:40:39;2.72;;;1.13;;
75408;SDS011;63979;55.644;37.734;2023-04-06T21:45:40;5.50;;;1.73;;
75408;SDS011;63979;55.644;37.734;2023-04-06T21:50:51;2.40;;;1.02;;
75408;SDS011;63979;55.644;37.734;2023-04-06T21:55:53;5.85;;;1.52;;
75408;SDS011;63979;55.644;37.734;2023-04-06T22:00:54;2.42;;;1.08;;
75408;SDS011;63979;55.644;37.734;2023-04-06T22:05:55;2.55;;;1.30;;
75408;SDS011;63979;55.644;37.734;2023-04-06T22:11:05;1.52;;;1.02;;
75408;SDS011;63979;55.644;37.734;2023-04-06T22:16:08;2.55;;;1.00;;
75408;SDS011;63979;55.644;37.734;2023-04-06T22:21:09;1.92;;;0.90;;
75408;SDS011;63979;55.644;37.734;2023-04-06T22:26:10;2.28;;;1.30;;
75408;SDS011;63979;55.644;37.734;2023-04-06T22:31:11;4.07;;;1.10;;
75408;SDS011;63979;55.644;37.734;2023-04-06T22:36:14;2.45;;;1.05;;
75408;SDS011;63979;55.644;37.734;2023-04-06T22:41:15;2.08;;;1.00;;
75408;SDS011;63979;55.644;37.734;2023-04-06T22:46:16;4.18;;;1.45;;
75408;SDS011;63979;55.644;37.734;2023-04-06T22:51:18;4.93;;;1.00;;
75408;SDS011;63979;55.644;37.734;2023-04-06T22:56:20;1.70;;;0.80;;
75408;SDS011;63979;55.644;37.734;2023-04-06T23:01:21;1.85;;;0.95;;
75408;SDS011;63979;55.644;37.734;2023-04-06T23:06:22;1.65;;;0.85;;
75408;SDS011;63979;55.644;37.734;2023-04-06T23:11:23;2.53;;;1.42;;
75408;SDS011;63979;55.644;37.734;2023-04-06T23:16:24;3.80;;;1.17;;
75408;SDS011;63979;55.644;37.734;2023-04-06T23:21:26;1.95;;;1.30;;
75408;SDS011;63979;55.644;37.734;2023-04-06T23:26:27;2.83;;;1.30;;
75408;SDS011;63979;55.644;37.734;2023-04-06T23:31:28;3.83;;;1.33;;
75408;SDS011;63979;55.644;37.734;2023-04-06T23:36:29;3.20;;;1.27;;
75408;SDS011;63979;55.644;37.734;2023-04-06T23:41:31;1.10;;;0.90;;
75408;SDS011;63979;55.644;37.734;2023-04-06T23:46:32;3.83;;;1.90;;
75408;SDS011;63979;55.644;37.734;2023-04-06T23:51:33;5.63;;;1.30;;
75408;SDS011;63979;55.644;37.734;2023-04-06T23:56:34;2.13;;;1.65;;
